sensor_id;sensor_type;location;lat;lon;timestamp;P1;durP1;ratioP1;P2;durP2;ratioP2
3189;SDS011;1606;51.946;10.558;2024-03-06T00:01:48;27.90;;;18.93;;
3189;SDS011;1606;51.946;10.558;2024-03-06T00:04:16;27.63;;;20.77;;
3189;SDS011;1606;51.946;10.558;2024-03-06T00:06:45;29.70;;;20.23;;
3189;SDS011;1606;51.946;10.558;2024-03-06T00:09:13;32.43;;;21.00;;
3189;SDS011;1606;51.946;10.558;2024-03-06T00:11:41;28.27;;;19.07;;
3189;SDS011;1606;51.946;10.558;2024-03-06T00:14:09;31.40;;;21.03;;
3189;SDS011;1606;51.946;10.558;2024-03-06T00:16:40;27.13;;;19.07;;
3189;SDS011;1606;51.946;10.558;2024-03-06T00:19:09;31.27;;;20.20;;
3189;SDS011;1606;51.946;10.558;2024-03-06T00:21:37;26.13;;;19.70;;
3189;SDS011;1606;51.946;10.558;2024-03-06T00:24:05;28.70;;;20.40;;
3189;SDS011;1606;51.946;10.558;2024-03-06T00:26:33;30.27;;;19.80;;
3189;SDS011;1606;51.946;10.558;2024-03-06T00:29:01;29.90;;;19.07;;
3189;SDS011;1606;51.946;10.558;2024-03-06T00:31:29;31.00;;;20.20;;
3189;SDS011;1606;51.946;10.558;2024-03-06T00:33:58;25.37;;;18.30;;
3189;SDS011;1606;51.946;10.558;2024-03-06T00:36:26;32.23;;;20.17;;
3189;SDS011;1606;51.946;10.558;2024-03-06T00:38:54;31.83;;;19.40;;
3189;SDS011;1606;51.946;10.558;2024-03-06T00:41:22;30.20;;;19.93;;
3189;SDS011;1606;51.946;10.558;2024-03-06T00:43:50;29.27;;;19.27;;
3189;SDS011;1606;51.946;10.558;2024-03-06T00:46:18;26.50;;;18.83;;
3189;SDS011;1606;51.946;10.558;2024-03-06T00:48:46;30.93;;;20.50;;
3189;SDS011;1606;51.946;10.558;2024-03-06T00:51:15;30.17;;;19.23;;
3189;SDS011;1606;51.946;10.558;2024-03-06T00:53:49;33.57;;;20.73;;
3189;SDS011;1606;51.946;10.558;2024-03-06T00:56:17;28.87;;;20.53;;
3189;SDS011;1606;51.946;10.558;2024-03-06T00:58:45;28.07;;;19.50;;
3189;SDS011;1606;51.946;10.558;2024-03-06T01:01:13;28.30;;;19.50;;
3189;SDS011;1606;51.946;10.558;2024-03-06T01:03:42;28.37;;;20.03;;
3189;SDS011;1606;51.946;10.558;2024-03-06T01:06:10;27.87;;;19.17;;
3189;SDS011;1606;51.946;10.558;2024-03-06T01:08:39;28.20;;;21.13;;
3189;SDS011;1606;51.946;10.558;2024-03-06T01:11:07;25.13;;;18.20;;
3189;SDS011;1606;51.946;10.558;2024-03-06T01:13:36;26.80;;;18.10;;
3189;SDS011;1606;51.946;10.558;2024-03-06T01:16:04;26.83;;;17.90;;
3189;SDS011;1606;51.946;10.558;2024-03-06T01:18:33;26.93;;;19.50;;
3189;SDS011;1606;51.946;10.558;2024-03-06T01:21:01;25.33;;;17.97;;
3189;SDS011;1606;51.946;10.558;2024-03-06T01:23:29;26.17;;;18.20;;
3189;SDS011;1606;51.946;10.558;2024-03-06T01:25:59;31.00;;;19.63;;
3189;SDS011;1606;51.946;10.558;2024-03-06T01:28:27;25.73;;;18.97;;
3189;SDS011;1606;51.946;10.558;2024-03-06T01:30:55;27.90;;;19.43;;
3189;SDS011;1606;51.946;10.558;2024-03-06T01:33:25;29.30;;;19.47;;
3189;SDS011;1606;51.946;10.558;2024-03-06T01:35:53;25.40;;;18.83;;
3189;SDS011;1606;51.946;10.558;2024-03-06T01:38:20;29.07;;;19.30;;
3189;SDS011;1606;51.946;10.558;2024-03-06T01:40:49;24.47;;;18.33;;
3189;SDS011;1606;51.946;10.558;2024-03-06T01:43:19;30.67;;;20.67;;
3189;SDS011;1606;51.946;10.558;2024-03-06T01:45:48;27.87;;;18.70;;
3189;SDS011;1606;51.946;10.558;2024-03-06T01:48:16;27.10;;;18.70;;
3189;SDS011;1606;51.946;10.558;2024-03-06T01:50:47;28.20;;;19.37;;
3189;SDS011;1606;51.946;10.558;2024-03-06T01:53:15;26.60;;;19.80;;
3189;SDS011;1606;51.946;10.558;2024-03-06T01:55:45;34.63;;;19.07;;
3189;SDS011;1606;51.946;10.558;2024-03-06T01:58:15;28.37;;;19.20;;
3189;SDS011;1606;51.946;10.558;2024-03-06T02:00:46;27.27;;;18.70;;
3189;SDS011;1606;51.946;10.558;2024-03-06T02:03:14;24.90;;;18.90;;
3189;SDS011;1606;51.946;10.558;2024-03-06T02:05:43;25.70;;;17.93;;
3189;SDS011;1606;51.946;10.558;2024-03-06T02:08:11;27.20;;;19.80;;
3189;SDS011;1606;51.946;10.558;2024-03-06T02:10:39;23.70;;;17.90;;
3189;SDS011;1606;51.946;10.558;2024-03-06T02:13:07;25.80;;;17.73;;
3189;SDS011;1606;51.946;10.558;2024-03-06T02:15:36;29.23;;;17.93;;
3189;SDS011;1606;51.946;10.558;2024-03-06T02:18:06;24.20;;;16.60;;
3189;SDS011;1606;51.946;10.558;2024-03-06T02:20:38;28.63;;;17.77;;
3189;SDS011;1606;51.946;10.558;2024-03-06T02:23:07;27.70;;;19.17;;
3189;SDS011;1606;51.946;10.558;2024-03-06T02:25:35;25.10;;;17.53;;
3189;SDS011;1606;51.946;10.558;2024-03-06T02:28:03;27.40;;;18.07;;
3189;SDS011;1606;51.946;10.558;2024-03-06T02:30:32;26.70;;;18.63;;
3189;SDS011;1606;51.946;10.558;2024-03-06T02:33:03;26.37;;;18.27;;
3189;SDS011;1606;51.946;10.558;2024-03-06T02:35:33;27.07;;;17.67;;
3189;SDS011;1606;51.946;10.558;2024-03-06T02:38:03;24.40;;;18.80;;
3189;SDS011;1606;51.946;10.558;2024-03-06T02:40:31;27.03;;;19.70;;
3189;SDS011;1606;51.946;10.558;2024-03-06T02:43:00;24.10;;;17.37;;
3189;SDS011;1606;51.946;10.558;2024-03-06T02:45:28;25.20;;;19.10;;
3189;SDS011;1606;51.946;10.558;2024-03-06T02:47:55;27.47;;;17.90;;
3189;SDS011;1606;51.946;10.558;2024-03-06T02:50:23;24.17;;;17.37;;
3189;SDS011;1606;51.946;10.558;2024-03-06T02:52:51;25.10;;;17.73;;
3189;SDS011;1606;51.946;10.558;2024-03-06T02:55:21;24.83;;;16.23;;
3189;SDS011;1606;51.946;10.558;2024-03-06T02:57:49;25.97;;;17.33;;
3189;SDS011;1606;51.946;10.558;2024-03-06T03:00:17;25.57;;;17.50;;
3189;SDS011;1606;51.946;10.558;2024-03-06T03:02:45;25.60;;;16.87;;
3189;SDS011;1606;51.946;10.558;2024-03-06T03:05:13;24.93;;;17.40;;
3189;SDS011;1606;51.946;10.558;2024-03-06T03:07:41;24.87;;;17.53;;
3189;SDS011;1606;51.946;10.558;2024-03-06T03:10:09;26.73;;;16.33;;
3189;SDS011;1606;51.946;10.558;2024-03-06T03:12:40;25.33;;;16.57;;
3189;SDS011;1606;51.946;10.558;2024-03-06T03:15:08;22.83;;;16.80;;
3189;SDS011;1606;51.946;10.558;2024-03-06T03:17:36;24.40;;;16.97;;
3189;SDS011;1606;51.946;10.558;2024-03-06T03:20:05;24.83;;;16.57;;
3189;SDS011;1606;51.946;10.558;2024-03-06T03:22:37;24.67;;;16.60;;
3189;SDS011;1606;51.946;10.558;2024-03-06T03:25:07;24.80;;;16.97;;
3189;SDS011;1606;51.946;10.558;2024-03-06T03:27:36;25.70;;;16.77;;
3189;SDS011;1606;51.946;10.558;2024-03-06T03:30:06;25.40;;;16.87;;
3189;SDS011;1606;51.946;10.558;2024-03-06T03:32:36;23.00;;;17.13;;
3189;SDS011;1606;51.946;10.558;2024-03-06T03:35:04;30.10;;;17.60;;
3189;SDS011;1606;51.946;10.558;2024-03-06T03:37:33;26.10;;;17.17;;
3189;SDS011;1606;51.946;10.558;2024-03-06T03:40:01;25.77;;;18.10;;
3189;SDS011;1606;51.946;10.558;2024-03-06T03:42:29;28.93;;;17.40;;
3189;SDS011;1606;51.946;10.558;2024-03-06T03:44:57;23.30;;;16.30;;
3189;SDS011;1606;51.946;10.558;2024-03-06T03:47:27;23.10;;;16.87;;
3189;SDS011;1606;51.946;10.558;2024-03-06T03:49:54;24.27;;;15.60;;
3189;SDS011;1606;51.946;10.558;2024-03-06T03:52:35;24.10;;;15.50;;
3189;SDS011;1606;51.946;10.558;2024-03-06T03:55:07;29.60;;;19.47;;
3189;SDS011;1606;51.946;10.558;2024-03-06T03:57:36;25.47;;;16.37;;
3189;SDS011;1606;51.946;10.558;2024-03-06T04:00:04;27.23;;;17.67;;
3189;SDS011;1606;51.946;10.558;2024-03-06T04:02:38;25.33;;;16.90;;
3189;SDS011;1606;51.946;10.558;2024-03-06T04:05:06;25.53;;;16.90;;
3189;SDS011;1606;51.946;10.558;2024-03-06T04:07:35;25.70;;;16.50;;
3189;SDS011;1606;51.946;10.558;2024-03-06T04:10:04;24.87;;;17.23;;
3189;SDS011;1606;51.946;10.558;2024-03-06T04:12:33;24.27;;;16.60;;
3189;SDS011;1606;51.946;10.558;2024-03-06T04:15:01;27.80;;;17.10;;
3189;SDS011;1606;51.946;10.558;2024-03-06T04:17:30;24.33;;;17.17;;
3189;SDS011;1606;51.946;10.558;2024-03-06T04:19:59;27.40;;;17.53;;
3189;SDS011;1606;51.946;10.558;2024-03-06T04:22:27;26.50;;;18.30;;
3189;SDS011;1606;51.946;10.558;2024-03-06T04:24:55;24.33;;;18.23;;
3189;SDS011;1606;51.946;10.558;2024-03-06T04:27:25;28.80;;;17.63;;
3189;SDS011;1606;51.946;10.558;2024-03-06T04:29:53;29.93;;;17.63;;
3189;SDS011;1606;51.946;10.558;2024-03-06T04:32:20;26.50;;;19.90;;
3189;SDS011;1606;51.946;10.558;2024-03-06T04:34:48;28.20;;;17.27;;
3189;SDS011;1606;51.946;10.558;2024-03-06T04:37:17;26.13;;;17.27;;
3189;SDS011;1606;51.946;10.558;2024-03-06T04:39:46;30.10;;;18.00;;
3189;SDS011;1606;51.946;10.558;2024-03-06T04:42:14;27.43;;;16.13;;
3189;SDS011;1606;51.946;10.558;2024-03-06T04:44:42;26.33;;;17.17;;
3189;SDS011;1606;51.946;10.558;2024-03-06T04:47:10;28.20;;;18.43;;
3189;SDS011;1606;51.946;10.558;2024-03-06T04:49:38;25.97;;;17.50;;
3189;SDS011;1606;51.946;10.558;2024-03-06T04:52:06;25.13;;;16.30;;
3189;SDS011;1606;51.946;10.558;2024-03-06T04:54:36;24.40;;;15.80;;
3189;SDS011;1606;51.946;10.558;2024-03-06T04:57:05;30.37;;;18.13;;
3189;SDS011;1606;51.946;10.558;2024-03-06T04:59:32;24.37;;;17.00;;
3189;SDS011;1606;51.946;10.558;2024-03-06T05:02:00;24.40;;;16.57;;
3189;SDS011;1606;51.946;10.558;2024-03-06T05:04:29;27.60;;;18.30;;
3189;SDS011;1606;51.946;10.558;2024-03-06T05:07:15;26.00;;;16.77;;
3189;SDS011;1606;51.946;10.558;2024-03-06T05:10:03;25.40;;;16.97;;
3189;SDS011;1606;51.946;10.558;2024-03-06T05:12:51;24.70;;;16.87;;
3189;SDS011;1606;51.946;10.558;2024-03-06T05:15:37;23.60;;;16.67;;
3189;SDS011;1606;51.946;10.558;2024-03-06T05:18:22;24.50;;;17.63;;
3189;SDS011;1606;51.946;10.558;2024-03-06T05:21:08;27.27;;;19.70;;
3189;SDS011;1606;51.946;10.558;2024-03-06T05:23:53;26.07;;;18.67;;
3189;SDS011;1606;51.946;10.558;2024-03-06T05:26:40;24.50;;;16.50;;
3189;SDS011;1606;51.946;10.558;2024-03-06T05:29:26;28.60;;;18.10;;
3189;SDS011;1606;51.946;10.558;2024-03-06T05:32:11;27.37;;;19.50;;
3189;SDS011;1606;51.946;10.558;2024-03-06T05:34:57;27.77;;;18.10;;
3189;SDS011;1606;51.946;10.558;2024-03-06T05:37:43;26.37;;;18.27;;
3189;SDS011;1606;51.946;10.558;2024-03-06T05:40:28;26.70;;;18.53;;
3189;SDS011;1606;51.946;10.558;2024-03-06T05:43:16;26.53;;;17.27;;
3189;SDS011;1606;51.946;10.558;2024-03-06T05:46:01;31.63;;;19.00;;
3189;SDS011;1606;51.946;10.558;2024-03-06T05:48:47;25.17;;;18.13;;
3189;SDS011;1606;51.946;10.558;2024-03-06T05:51:34;25.60;;;18.87;;
3189;SDS011;1606;51.946;10.558;2024-03-06T05:54:19;28.67;;;18.23;;
3189;SDS011;1606;51.946;10.558;2024-03-06T05:57:05;23.63;;;18.80;;
3189;SDS011;1606;51.946;10.558;2024-03-06T05:59:53;28.30;;;17.93;;
3189;SDS011;1606;51.946;10.558;2024-03-06T06:02:21;28.30;;;18.90;;
3189;SDS011;1606;51.946;10.558;2024-03-06T06:04:49;24.13;;;16.67;;
3189;SDS011;1606;51.946;10.558;2024-03-06T06:07:37;26.57;;;17.53;;
3189;SDS011;1606;51.946;10.558;2024-03-06T06:10:05;27.20;;;18.07;;
3189;SDS011;1606;51.946;10.558;2024-03-06T06:12:36;26.40;;;18.20;;
3189;SDS011;1606;51.946;10.558;2024-03-06T06:15:06;23.03;;;17.23;;
3189;SDS011;1606;51.946;10.558;2024-03-06T06:17:34;24.77;;;18.20;;
3189;SDS011;1606;51.946;10.558;2024-03-06T06:20:05;26.60;;;17.63;;
3189;SDS011;1606;51.946;10.558;2024-03-06T06:22:35;25.90;;;18.43;;
3189;SDS011;1606;51.946;10.558;2024-03-06T06:25:04;26.60;;;18.10;;
3189;SDS011;1606;51.946;10.558;2024-03-06T06:27:35;27.10;;;18.63;;
3189;SDS011;1606;51.946;10.558;2024-03-06T06:30:06;28.33;;;18.90;;
3189;SDS011;1606;51.946;10.558;2024-03-06T06:32:38;26.60;;;17.87;;
3189;SDS011;1606;51.946;10.558;2024-03-06T06:35:08;23.93;;;17.50;;
3189;SDS011;1606;51.946;10.558;2024-03-06T06:37:38;33.30;;;18.23;;
3189;SDS011;1606;51.946;10.558;2024-03-06T06:40:06;25.37;;;17.63;;
3189;SDS011;1606;51.946;10.558;2024-03-06T06:42:36;29.87;;;18.10;;
3189;SDS011;1606;51.946;10.558;2024-03-06T06:45:05;25.03;;;17.43;;
3189;SDS011;1606;51.946;10.558;2024-03-06T06:47:36;26.83;;;18.63;;
3189;SDS011;1606;51.946;10.558;2024-03-06T06:50:06;31.40;;;17.17;;
3189;SDS011;1606;51.946;10.558;2024-03-06T06:52:35;23.80;;;17.47;;
3189;SDS011;1606;51.946;10.558;2024-03-06T06:55:03;28.70;;;19.20;;
3189;SDS011;1606;51.946;10.558;2024-03-06T06:57:32;25.10;;;17.87;;
3189;SDS011;1606;51.946;10.558;2024-03-06T07:00:00;27.10;;;16.73;;
3189;SDS011;1606;51.946;10.558;2024-03-06T07:02:36;25.43;;;18.13;;
3189;SDS011;1606;51.946;10.558;2024-03-06T07:05:05;26.83;;;17.10;;
3189;SDS011;1606;51.946;10.558;2024-03-06T07:07:34;27.47;;;18.50;;
3189;SDS011;1606;51.946;10.558;2024-03-06T07:10:02;29.83;;;18.20;;
3189;SDS011;1606;51.946;10.558;2024-03-06T07:12:31;26.33;;;18.17;;
3189;SDS011;1606;51.946;10.558;2024-03-06T07:14:59;28.33;;;18.63;;
3189;SDS011;1606;51.946;10.558;2024-03-06T07:17:26;30.93;;;19.00;;
3189;SDS011;1606;51.946;10.558;2024-03-06T07:19:56;30.73;;;19.53;;
3189;SDS011;1606;51.946;10.558;2024-03-06T07:22:24;29.30;;;19.30;;
3189;SDS011;1606;51.946;10.558;2024-03-06T07:24:52;31.60;;;19.60;;
3189;SDS011;1606;51.946;10.558;2024-03-06T07:27:23;26.63;;;17.43;;
3189;SDS011;1606;51.946;10.558;2024-03-06T07:29:51;30.37;;;19.07;;
3189;SDS011;1606;51.946;10.558;2024-03-06T07:32:19;27.30;;;20.13;;
3189;SDS011;1606;51.946;10.558;2024-03-06T07:34:47;27.43;;;18.90;;
3189;SDS011;1606;51.946;10.558;2024-03-06T07:37:16;26.77;;;18.37;;
3189;SDS011;1606;51.946;10.558;2024-03-06T07:39:45;29.00;;;18.30;;
3189;SDS011;1606;51.946;10.558;2024-03-06T07:42:16;32.00;;;18.77;;
3189;SDS011;1606;51.946;10.558;2024-03-06T07:44:44;30.67;;;18.50;;
3189;SDS011;1606;51.946;10.558;2024-03-06T07:47:12;29.00;;;19.97;;
3189;SDS011;1606;51.946;10.558;2024-03-06T07:49:41;32.00;;;21.40;;
3189;SDS011;1606;51.946;10.558;2024-03-06T07:52:10;27.03;;;17.50;;
3189;SDS011;1606;51.946;10.558;2024-03-06T07:54:40;28.83;;;17.93;;
3189;SDS011;1606;51.946;10.558;2024-03-06T07:57:08;30.43;;;21.33;;
3189;SDS011;1606;51.946;10.558;2024-03-06T07:59:37;33.13;;;20.30;;
3189;SDS011;1606;51.946;10.558;2024-03-06T08:02:05;31.23;;;20.47;;
3189;SDS011;1606;51.946;10.558;2024-03-06T08:04:33;26.77;;;18.63;;
3189;SDS011;1606;51.946;10.558;2024-03-06T08:07:03;31.27;;;20.30;;
3189;SDS011;1606;51.946;10.558;2024-03-06T08:09:31;33.67;;;22.10;;
3189;SDS011;1606;51.946;10.558;2024-03-06T08:12:00;28.80;;;19.67;;
3189;SDS011;1606;51.946;10.558;2024-03-06T08:14:28;31.87;;;20.17;;
3189;SDS011;1606;51.946;10.558;2024-03-06T08:16:56;28.33;;;18.70;;
3189;SDS011;1606;51.946;10.558;2024-03-06T08:19:24;26.20;;;18.93;;
3189;SDS011;1606;51.946;10.558;2024-03-06T08:21:53;30.63;;;19.73;;
3189;SDS011;1606;51.946;10.558;2024-03-06T08:24:21;29.50;;;19.60;;
3189;SDS011;1606;51.946;10.558;2024-03-06T08:26:49;33.10;;;21.60;;
3189;SDS011;1606;51.946;10.558;2024-03-06T08:29:18;28.77;;;20.80;;
3189;SDS011;1606;51.946;10.558;2024-03-06T08:31:46;27.93;;;19.83;;
3189;SDS011;1606;51.946;10.558;2024-03-06T08:34:14;30.33;;;21.70;;
3189;SDS011;1606;51.946;10.558;2024-03-06T08:36:44;25.73;;;18.20;;
3189;SDS011;1606;51.946;10.558;2024-03-06T08:39:12;26.50;;;17.80;;
3189;SDS011;1606;51.946;10.558;2024-03-06T08:41:43;28.10;;;18.93;;
3189;SDS011;1606;51.946;10.558;2024-03-06T08:44:11;34.30;;;19.53;;
3189;SDS011;1606;51.946;10.558;2024-03-06T08:46:40;29.53;;;18.60;;
3189;SDS011;1606;51.946;10.558;2024-03-06T08:49:08;29.93;;;20.23;;
3189;SDS011;1606;51.946;10.558;2024-03-06T08:51:37;32.07;;;20.50;;
3189;SDS011;1606;51.946;10.558;2024-03-06T08:54:05;29.80;;;19.60;;
3189;SDS011;1606;51.946;10.558;2024-03-06T08:56:35;30.93;;;20.53;;
3189;SDS011;1606;51.946;10.558;2024-03-06T08:59:03;33.50;;;21.17;;
3189;SDS011;1606;51.946;10.558;2024-03-06T09:01:31;27.07;;;20.07;;
3189;SDS011;1606;51.946;10.558;2024-03-06T09:04:01;29.67;;;19.80;;
3189;SDS011;1606;51.946;10.558;2024-03-06T09:06:29;33.03;;;21.17;;
3189;SDS011;1606;51.946;10.558;2024-03-06T09:08:57;31.80;;;21.70;;
3189;SDS011;1606;51.946;10.558;2024-03-06T09:11:25;31.53;;;21.70;;
3189;SDS011;1606;51.946;10.558;2024-03-06T09:13:53;30.23;;;19.57;;
3189;SDS011;1606;51.946;10.558;2024-03-06T09:16:21;30.70;;;20.50;;
3189;SDS011;1606;51.946;10.558;2024-03-06T09:18:49;32.67;;;21.40;;
3189;SDS011;1606;51.946;10.558;2024-03-06T09:21:18;30.30;;;22.60;;
3189;SDS011;1606;51.946;10.558;2024-03-06T09:23:48;29.87;;;20.73;;
3189;SDS011;1606;51.946;10.558;2024-03-06T09:26:17;31.30;;;22.90;;
3189;SDS011;1606;51.946;10.558;2024-03-06T09:28:46;32.30;;;21.57;;
3189;SDS011;1606;51.946;10.558;2024-03-06T09:31:15;31.00;;;22.10;;
3189;SDS011;1606;51.946;10.558;2024-03-06T09:33:43;29.27;;;20.63;;
3189;SDS011;1606;51.946;10.558;2024-03-06T09:36:12;31.80;;;21.60;;
3189;SDS011;1606;51.946;10.558;2024-03-06T09:38:42;37.17;;;22.30;;
3189;SDS011;1606;51.946;10.558;2024-03-06T09:41:09;34.10;;;24.73;;
3189;SDS011;1606;51.946;10.558;2024-03-06T09:43:38;33.37;;;24.57;;
3189;SDS011;1606;51.946;10.558;2024-03-06T09:46:11;36.50;;;22.63;;
3189;SDS011;1606;51.946;10.558;2024-03-06T09:48:40;36.60;;;23.37;;
3189;SDS011;1606;51.946;10.558;2024-03-06T09:51:13;32.07;;;22.00;;
3189;SDS011;1606;51.946;10.558;2024-03-06T09:53:43;33.70;;;21.70;;
3189;SDS011;1606;51.946;10.558;2024-03-06T09:56:11;29.83;;;20.97;;
3189;SDS011;1606;51.946;10.558;2024-03-06T09:58:39;33.50;;;22.33;;
3189;SDS011;1606;51.946;10.558;2024-03-06T10:01:08;38.50;;;22.43;;
3189;SDS011;1606;51.946;10.558;2024-03-06T10:03:38;37.50;;;23.57;;
3189;SDS011;1606;51.946;10.558;2024-03-06T10:06:07;32.53;;;21.40;;
3189;SDS011;1606;51.946;10.558;2024-03-06T10:08:41;35.20;;;23.30;;
3189;SDS011;1606;51.946;10.558;2024-03-06T10:11:12;32.37;;;21.40;;
3189;SDS011;1606;51.946;10.558;2024-03-06T10:13:41;34.23;;;22.43;;
3189;SDS011;1606;51.946;10.558;2024-03-06T10:16:09;34.97;;;22.03;;
3189;SDS011;1606;51.946;10.558;2024-03-06T10:18:37;33.13;;;23.33;;
3189;SDS011;1606;51.946;10.558;2024-03-06T10:21:06;33.10;;;22.90;;
3189;SDS011;1606;51.946;10.558;2024-03-06T10:23:34;35.77;;;24.20;;
3189;SDS011;1606;51.946;10.558;2024-03-06T10:26:05;35.70;;;23.20;;
3189;SDS011;1606;51.946;10.558;2024-03-06T10:28:35;30.30;;;22.97;;
3189;SDS011;1606;51.946;10.558;2024-03-06T10:31:05;31.70;;;21.93;;
3189;SDS011;1606;51.946;10.558;2024-03-06T10:33:34;31.03;;;22.33;;
3189;SDS011;1606;51.946;10.558;2024-03-06T10:36:04;33.33;;;23.60;;
3189;SDS011;1606;51.946;10.558;2024-03-06T10:38:33;34.83;;;22.17;;
3189;SDS011;1606;51.946;10.558;2024-03-06T10:41:06;30.60;;;20.90;;
3189;SDS011;1606;51.946;10.558;2024-03-06T10:43:41;32.10;;;22.53;;
3189;SDS011;1606;51.946;10.558;2024-03-06T10:46:11;38.93;;;23.40;;
3189;SDS011;1606;51.946;10.558;2024-03-06T10:48:40;32.13;;;22.33;;
3189;SDS011;1606;51.946;10.558;2024-03-06T10:51:11;28.30;;;21.80;;
3189;SDS011;1606;51.946;10.558;2024-03-06T10:53:42;27.33;;;20.37;;
3189;SDS011;1606;51.946;10.558;2024-03-06T10:56:13;33.00;;;23.03;;
3189;SDS011;1606;51.946;10.558;2024-03-06T10:58:44;33.40;;;25.23;;
3189;SDS011;1606;51.946;10.558;2024-03-06T11:01:14;30.17;;;22.40;;
3189;SDS011;1606;51.946;10.558;2024-03-06T11:03:45;31.27;;;22.60;;
3189;SDS011;1606;51.946;10.558;2024-03-06T11:06:23;39.50;;;23.93;;
3189;SDS011;1606;51.946;10.558;2024-03-06T11:08:53;30.40;;;22.03;;
3189;SDS011;1606;51.946;10.558;2024-03-06T11:11:23;32.07;;;21.60;;
3189;SDS011;1606;51.946;10.558;2024-03-06T11:13:54;31.37;;;22.37;;
3189;SDS011;1606;51.946;10.558;2024-03-06T11:16:27;30.50;;;22.40;;
3189;SDS011;1606;51.946;10.558;2024-03-06T11:19:05;35.60;;;21.77;;
3189;SDS011;1606;51.946;10.558;2024-03-06T11:21:36;27.27;;;20.33;;
3189;SDS011;1606;51.946;10.558;2024-03-06T11:24:20;33.17;;;22.50;;
3189;SDS011;1606;51.946;10.558;2024-03-06T11:26:53;34.10;;;21.10;;
3189;SDS011;1606;51.946;10.558;2024-03-06T11:29:26;26.63;;;21.37;;
3189;SDS011;1606;51.946;10.558;2024-03-06T11:31:59;30.57;;;20.33;;
3189;SDS011;1606;51.946;10.558;2024-03-06T11:34:34;33.20;;;22.50;;
3189;SDS011;1606;51.946;10.558;2024-03-06T11:37:03;32.80;;;21.63;;
3189;SDS011;1606;51.946;10.558;2024-03-06T11:39:33;27.97;;;20.57;;
3189;SDS011;1606;51.946;10.558;2024-03-06T11:42:04;31.70;;;21.37;;
3189;SDS011;1606;51.946;10.558;2024-03-06T11:44:35;35.23;;;21.70;;
3189;SDS011;1606;51.946;10.558;2024-03-06T11:47:04;34.10;;;21.47;;
3189;SDS011;1606;51.946;10.558;2024-03-06T11:49:35;31.00;;;23.23;;
3189;SDS011;1606;51.946;10.558;2024-03-06T11:52:05;33.10;;;22.07;;
3189;SDS011;1606;51.946;10.558;2024-03-06T11:54:34;34.67;;;21.50;;
3189;SDS011;1606;51.946;10.558;2024-03-06T11:57:04;31.80;;;23.10;;
3189;SDS011;1606;51.946;10.558;2024-03-06T11:59:33;28.80;;;22.03;;
3189;SDS011;1606;51.946;10.558;2024-03-06T12:02:04;34.40;;;22.20;;
3189;SDS011;1606;51.946;10.558;2024-03-06T12:04:34;30.50;;;22.73;;
3189;SDS011;1606;51.946;10.558;2024-03-06T12:07:05;28.37;;;20.93;;
3189;SDS011;1606;51.946;10.558;2024-03-06T12:09:34;33.00;;;21.40;;
3189;SDS011;1606;51.946;10.558;2024-03-06T12:12:09;29.50;;;23.67;;
3189;SDS011;1606;51.946;10.558;2024-03-06T12:14:39;33.20;;;22.10;;
3189;SDS011;1606;51.946;10.558;2024-03-06T12:17:11;31.53;;;22.40;;
3189;SDS011;1606;51.946;10.558;2024-03-06T12:19:41;28.47;;;21.03;;
3189;SDS011;1606;51.946;10.558;2024-03-06T12:22:12;30.90;;;22.10;;
3189;SDS011;1606;51.946;10.558;2024-03-06T12:24:41;30.17;;;20.30;;
3189;SDS011;1606;51.946;10.558;2024-03-06T12:27:11;35.30;;;23.07;;
3189;SDS011;1606;51.946;10.558;2024-03-06T12:29:43;27.97;;;20.40;;
3189;SDS011;1606;51.946;10.558;2024-03-06T12:32:15;31.63;;;20.93;;
3189;SDS011;1606;51.946;10.558;2024-03-06T12:34:55;27.93;;;21.87;;
3189;SDS011;1606;51.946;10.558;2024-03-06T12:37:28;32.67;;;23.23;;
3189;SDS011;1606;51.946;10.558;2024-03-06T12:40:01;32.30;;;21.83;;
3189;SDS011;1606;51.946;10.558;2024-03-06T12:42:33;29.77;;;19.90;;
3189;SDS011;1606;51.946;10.558;2024-03-06T12:45:00;30.67;;;20.90;;
3189;SDS011;1606;51.946;10.558;2024-03-06T12:47:30;30.97;;;21.67;;
3189;SDS011;1606;51.946;10.558;2024-03-06T12:49:58;25.70;;;20.10;;
3189;SDS011;1606;51.946;10.558;2024-03-06T12:52:26;23.57;;;17.57;;
3189;SDS011;1606;51.946;10.558;2024-03-06T12:54:54;28.87;;;19.83;;
3189;SDS011;1606;51.946;10.558;2024-03-06T12:57:23;26.50;;;19.43;;
3189;SDS011;1606;51.946;10.558;2024-03-06T12:59:52;28.20;;;19.40;;
3189;SDS011;1606;51.946;10.558;2024-03-06T13:02:20;30.80;;;21.93;;
3189;SDS011;1606;51.946;10.558;2024-03-06T13:04:48;32.73;;;19.60;;
3189;SDS011;1606;51.946;10.558;2024-03-06T13:07:17;27.67;;;20.87;;
3189;SDS011;1606;51.946;10.558;2024-03-06T13:09:48;32.37;;;20.80;;
3189;SDS011;1606;51.946;10.558;2024-03-06T13:12:17;32.80;;;21.00;;
3189;SDS011;1606;51.946;10.558;2024-03-06T13:14:45;29.20;;;20.30;;
3189;SDS011;1606;51.946;10.558;2024-03-06T13:17:15;25.50;;;18.97;;
3189;SDS011;1606;51.946;10.558;2024-03-06T13:19:43;31.07;;;21.13;;
3189;SDS011;1606;51.946;10.558;2024-03-06T13:22:11;29.97;;;21.73;;
3189;SDS011;1606;51.946;10.558;2024-03-06T13:24:39;31.13;;;21.40;;
3189;SDS011;1606;51.946;10.558;2024-03-06T13:27:11;29.70;;;21.17;;
3189;SDS011;1606;51.946;10.558;2024-03-06T13:29:39;30.00;;;23.20;;
3189;SDS011;1606;51.946;10.558;2024-03-06T13:32:07;31.80;;;24.47;;
3189;SDS011;1606;51.946;10.558;2024-03-06T13:34:37;32.20;;;24.13;;
3189;SDS011;1606;51.946;10.558;2024-03-06T13:37:04;30.40;;;23.50;;
3189;SDS011;1606;51.946;10.558;2024-03-06T13:39:37;32.53;;;22.63;;
3189;SDS011;1606;51.946;10.558;2024-03-06T13:42:06;31.10;;;22.80;;
3189;SDS011;1606;51.946;10.558;2024-03-06T13:44:35;28.43;;;22.43;;
3189;SDS011;1606;51.946;10.558;2024-03-06T13:47:04;28.30;;;22.03;;
3189;SDS011;1606;51.946;10.558;2024-03-06T13:49:34;32.63;;;19.97;;
3189;SDS011;1606;51.946;10.558;2024-03-06T13:52:06;30.33;;;21.63;;
3189;SDS011;1606;51.946;10.558;2024-03-06T13:54:37;29.07;;;20.00;;
3189;SDS011;1606;51.946;10.558;2024-03-06T13:57:06;27.77;;;20.77;;
3189;SDS011;1606;51.946;10.558;2024-03-06T13:59:34;26.07;;;20.00;;
3189;SDS011;1606;51.946;10.558;2024-03-06T14:02:04;25.67;;;18.70;;
3189;SDS011;1606;51.946;10.558;2024-03-06T14:04:34;23.03;;;18.77;;
3189;SDS011;1606;51.946;10.558;2024-03-06T14:07:03;29.60;;;19.97;;
3189;SDS011;1606;51.946;10.558;2024-03-06T14:12:29;32.43;;;20.67;;
3189;SDS011;1606;51.946;10.558;2024-03-06T14:14:57;31.07;;;20.03;;
3189;SDS011;1606;51.946;10.558;2024-03-06T14:17:25;29.87;;;18.73;;
3189;SDS011;1606;51.946;10.558;2024-03-06T14:19:54;28.37;;;18.53;;
3189;SDS011;1606;51.946;10.558;2024-03-06T14:22:23;26.10;;;18.43;;
3189;SDS011;1606;51.946;10.558;2024-03-06T14:24:51;35.17;;;21.20;;
3189;SDS011;1606;51.946;10.558;2024-03-06T14:27:19;25.90;;;19.00;;
3189;SDS011;1606;51.946;10.558;2024-03-06T14:29:47;26.60;;;18.70;;
3189;SDS011;1606;51.946;10.558;2024-03-06T14:32:16;32.13;;;19.30;;
3189;SDS011;1606;51.946;10.558;2024-03-06T14:34:46;26.40;;;18.13;;
3189;SDS011;1606;51.946;10.558;2024-03-06T14:37:14;34.90;;;19.83;;
3189;SDS011;1606;51.946;10.558;2024-03-06T14:39:44;27.50;;;18.70;;
3189;SDS011;1606;51.946;10.558;2024-03-06T14:42:12;30.77;;;18.77;;
3189;SDS011;1606;51.946;10.558;2024-03-06T14:44:41;27.73;;;18.80;;
3189;SDS011;1606;51.946;10.558;2024-03-06T14:47:10;24.43;;;19.37;;
3189;SDS011;1606;51.946;10.558;2024-03-06T14:49:41;24.70;;;17.97;;
3189;SDS011;1606;51.946;10.558;2024-03-06T14:52:11;26.42;;;19.30;;
3189;SDS011;1606;51.946;10.558;2024-03-06T14:54:39;26.23;;;20.17;;